sensor_id;sensor_type;location;lat;lon;timestamp;P1;durP1;ratioP1;P2;durP2;ratioP2
58196;SDS011;43999;51.660;5.616;2023-12-20T00:02:22;193.57;;;113.65;;
58196;SDS011;43999;51.660;5.616;2023-12-20T00:05:13;193.57;;;113.07;;
58196;SDS011;43999;51.660;5.616;2023-12-20T00:08:09;197.70;;;114.57;;
58196;SDS011;43999;51.660;5.616;2023-12-20T00:10:57;197.52;;;114.55;;
58196;SDS011;43999;51.660;5.616;2023-12-20T00:13:51;191.13;;;110.93;;
58196;SDS011;43999;51.660;5.616;2023-12-20T00:16:39;194.18;;;114.32;;
58196;SDS011;43999;51.660;5.616;2023-12-20T00:19:27;206.88;;;117.25;;
58196;SDS011;43999;51.660;5.616;2023-12-20T00:22:16;198.60;;;116.85;;
58196;SDS011;43999;51.660;5.616;2023-12-20T00:25:04;214.93;;;118.57;;
58196;SDS011;43999;51.660;5.616;2023-12-20T00:27:59;216.77;;;118.90;;
58196;SDS011;43999;51.660;5.616;2023-12-20T00:30:47;210.02;;;119.07;;
58196;SDS011;43999;51.660;5.616;2023-12-20T00:33:35;214.13;;;119.25;;
58196;SDS011;43999;51.660;5.616;2023-12-20T00:36:26;215.88;;;122.22;;
58196;SDS011;43999;51.660;5.616;2023-12-20T00:39:14;224.82;;;125.13;;
58196;SDS011;43999;51.660;5.616;2023-12-20T00:42:09;206.85;;;118.93;;
58196;SDS011;43999;51.660;5.616;2023-12-20T00:44:59;219.07;;;122.78;;
58196;SDS011;43999;51.660;5.616;2023-12-20T00:47:48;230.60;;;123.93;;
58196;SDS011;43999;51.660;5.616;2023-12-20T00:50:38;216.80;;;122.50;;
58196;SDS011;43999;51.660;5.616;2023-12-20T00:53:27;218.65;;;121.25;;
58196;SDS011;43999;51.660;5.616;2023-12-20T00:56:18;233.15;;;124.47;;
58196;SDS011;43999;51.660;5.616;2023-12-20T00:59:07;229.68;;;123.13;;
58196;SDS011;43999;51.660;5.616;2023-12-20T01:01:58;229.55;;;123.88;;
58196;SDS011;43999;51.660;5.616;2023-12-20T01:04:47;238.95;;;126.00;;
58196;SDS011;43999;51.660;5.616;2023-12-20T01:07:38;231.48;;;123.78;;
58196;SDS011;43999;51.660;5.616;2023-12-20T01:10:27;232.93;;;122.10;;
58196;SDS011;43999;51.660;5.616;2023-12-20T01:13:16;235.10;;;123.30;;
58196;SDS011;43999;51.660;5.616;2023-12-20T01:16:04;242.45;;;125.13;;
58196;SDS011;43999;51.660;5.616;2023-12-20T01:18:52;235.32;;;124.35;;
58196;SDS011;43999;51.660;5.616;2023-12-20T01:21:41;251.60;;;125.25;;
58196;SDS011;43999;51.660;5.616;2023-12-20T01:24:29;238.98;;;125.10;;
58196;SDS011;43999;51.660;5.616;2023-12-20T01:27:26;240.93;;;124.95;;
58196;SDS011;43999;51.660;5.616;2023-12-20T01:30:16;266.05;;;131.15;;
58196;SDS011;43999;51.660;5.616;2023-12-20T01:33:12;263.02;;;129.40;;
58196;SDS011;43999;51.660;5.616;2023-12-20T01:36:01;250.85;;;127.00;;
58196;SDS011;43999;51.660;5.616;2023-12-20T01:38:58;255.02;;;126.55;;
58196;SDS011;43999;51.660;5.616;2023-12-20T01:41:46;264.50;;;127.88;;
58196;SDS011;43999;51.660;5.616;2023-12-20T01:44:34;259.95;;;128.50;;
58196;SDS011;43999;51.660;5.616;2023-12-20T01:47:23;262.38;;;126.32;;
58196;SDS011;43999;51.660;5.616;2023-12-20T01:50:15;261.58;;;129.60;;
58196;SDS011;43999;51.660;5.616;2023-12-20T01:53:05;264.15;;;129.93;;
58196;SDS011;43999;51.660;5.616;2023-12-20T01:55:57;270.80;;;129.63;;
58196;SDS011;43999;51.660;5.616;2023-12-20T01:58:46;275.23;;;129.30;;
58196;SDS011;43999;51.660;5.616;2023-12-20T02:01:35;252.80;;;125.70;;
58196;SDS011;43999;51.660;5.616;2023-12-20T02:04:23;258.23;;;127.22;;
58196;SDS011;43999;51.660;5.616;2023-12-20T02:07:13;229.75;;;120.40;;
58196;SDS011;43999;51.660;5.616;2023-12-20T02:10:01;223.30;;;119.15;;
58196;SDS011;43999;51.660;5.616;2023-12-20T02:12:53;225.73;;;119.78;;
58196;SDS011;43999;51.660;5.616;2023-12-20T02:15:42;224.50;;;120.97;;
58196;SDS011;43999;51.660;5.616;2023-12-20T02:18:31;224.55;;;119.68;;
58196;SDS011;43999;51.660;5.616;2023-12-20T02:21:24;236.95;;;121.65;;
58196;SDS011;43999;51.660;5.616;2023-12-20T02:24:12;222.88;;;118.65;;
58196;SDS011;43999;51.660;5.616;2023-12-20T02:27:01;195.35;;;111.60;;
58196;SDS011;43999;51.660;5.616;2023-12-20T02:29:50;205.13;;;114.88;;
58196;SDS011;43999;51.660;5.616;2023-12-20T02:32:39;204.68;;;115.38;;
58196;SDS011;43999;51.660;5.616;2023-12-20T02:35:28;198.15;;;114.30;;
58196;SDS011;43999;51.660;5.616;2023-12-20T02:38:16;195.88;;;112.50;;
58196;SDS011;43999;51.660;5.616;2023-12-20T02:41:05;205.88;;;115.57;;
58196;SDS011;43999;51.660;5.616;2023-12-20T02:43:55;194.20;;;111.13;;
58196;SDS011;43999;51.660;5.616;2023-12-20T02:46:46;204.32;;;113.40;;
58196;SDS011;43999;51.660;5.616;2023-12-20T02:49:35;206.68;;;116.50;;
58196;SDS011;43999;51.660;5.616;2023-12-20T02:52:25;203.13;;;113.95;;
58196;SDS011;43999;51.660;5.616;2023-12-20T02:55:15;204.10;;;113.32;;
58196;SDS011;43999;51.660;5.616;2023-12-20T02:58:04;221.60;;;116.80;;
58196;SDS011;43999;51.660;5.616;2023-12-20T03:00:54;219.02;;;116.65;;
58196;SDS011;43999;51.660;5.616;2023-12-20T03:03:43;216.95;;;117.60;;
58196;SDS011;43999;51.660;5.616;2023-12-20T03:06:31;213.70;;;117.80;;
58196;SDS011;43999;51.660;5.616;2023-12-20T03:09:20;217.25;;;118.72;;
58196;SDS011;43999;51.660;5.616;2023-12-20T03:12:19;223.05;;;117.78;;
58196;SDS011;43999;51.660;5.616;2023-12-20T03:15:10;217.07;;;117.22;;
58196;SDS011;43999;51.660;5.616;2023-12-20T03:17:58;223.15;;;116.93;;
58196;SDS011;43999;51.660;5.616;2023-12-20T03:20:47;210.50;;;117.68;;
58196;SDS011;43999;51.660;5.616;2023-12-20T03:23:36;214.05;;;116.97;;
58196;SDS011;43999;51.660;5.616;2023-12-20T03:26:24;219.23;;;115.35;;
58196;SDS011;43999;51.660;5.616;2023-12-20T03:29:16;216.85;;;117.90;;
58196;SDS011;43999;51.660;5.616;2023-12-20T03:32:04;220.10;;;117.65;;
58196;SDS011;43999;51.660;5.616;2023-12-20T03:34:55;217.68;;;119.88;;
58196;SDS011;43999;51.660;5.616;2023-12-20T03:37:44;221.57;;;119.97;;
58196;SDS011;43999;51.660;5.616;2023-12-20T03:40:33;219.40;;;117.45;;
58196;SDS011;43999;51.660;5.616;2023-12-20T03:43:23;217.07;;;115.78;;
58196;SDS011;43999;51.660;5.616;2023-12-20T03:46:12;230.02;;;119.15;;
58196;SDS011;43999;51.660;5.616;2023-12-20T03:49:02;227.80;;;121.45;;
58196;SDS011;43999;51.660;5.616;2023-12-20T03:51:50;232.27;;;123.38;;
58196;SDS011;43999;51.660;5.616;2023-12-20T03:54:39;220.80;;;119.07;;
58196;SDS011;43999;51.660;5.616;2023-12-20T03:57:29;229.40;;;121.78;;
58196;SDS011;43999;51.660;5.616;2023-12-20T04:00:18;228.52;;;119.53;;
58196;SDS011;43999;51.660;5.616;2023-12-20T04:03:07;229.57;;;121.32;;
58196;SDS011;43999;51.660;5.616;2023-12-20T04:05:55;232.77;;;122.75;;
58196;SDS011;43999;51.660;5.616;2023-12-20T04:08:44;218.05;;;118.60;;
58196;SDS011;43999;51.660;5.616;2023-12-20T04:11:32;221.90;;;120.07;;
58196;SDS011;43999;51.660;5.616;2023-12-20T04:14:20;220.27;;;118.05;;
58196;SDS011;43999;51.660;5.616;2023-12-20T04:17:15;226.23;;;120.00;;
58196;SDS011;43999;51.660;5.616;2023-12-20T04:20:05;229.05;;;121.50;;
58196;SDS011;43999;51.660;5.616;2023-12-20T04:22:54;220.65;;;118.40;;
58196;SDS011;43999;51.660;5.616;2023-12-20T04:25:42;223.82;;;121.13;;
58196;SDS011;43999;51.660;5.616;2023-12-20T04:28:31;232.52;;;118.95;;
58196;SDS011;43999;51.660;5.616;2023-12-20T04:31:19;232.07;;;119.55;;
58196;SDS011;43999;51.660;5.616;2023-12-20T04:34:08;240.73;;;124.20;;
58196;SDS011;43999;51.660;5.616;2023-12-20T04:37:10;237.25;;;120.25;;
58196;SDS011;43999;51.660;5.616;2023-12-20T04:40:09;251.18;;;124.18;;
58196;SDS011;43999;51.660;5.616;2023-12-20T04:42:58;240.23;;;122.53;;
58196;SDS011;43999;51.660;5.616;2023-12-20T04:45:48;231.20;;;120.13;;
58196;SDS011;43999;51.660;5.616;2023-12-20T04:48:37;243.25;;;125.00;;
58196;SDS011;43999;51.660;5.616;2023-12-20T04:51:27;238.30;;;123.90;;
58196;SDS011;43999;51.660;5.616;2023-12-20T04:54:15;234.10;;;121.63;;
58196;SDS011;43999;51.660;5.616;2023-12-20T04:57:03;241.95;;;124.40;;
58196;SDS011;43999;51.660;5.616;2023-12-20T04:59:51;243.13;;;124.95;;
58196;SDS011;43999;51.660;5.616;2023-12-20T05:02:45;236.13;;;122.63;;
58196;SDS011;43999;51.660;5.616;2023-12-20T05:05:34;238.43;;;124.22;;
58196;SDS011;43999;51.660;5.616;2023-12-20T05:08:27;230.35;;;119.97;;
58196;SDS011;43999;51.660;5.616;2023-12-20T05:11:15;236.85;;;123.68;;
58196;SDS011;43999;51.660;5.616;2023-12-20T05:14:06;233.30;;;123.32;;
58196;SDS011;43999;51.660;5.616;2023-12-20T05:16:54;236.68;;;122.15;;
58196;SDS011;43999;51.660;5.616;2023-12-20T05:19:43;245.90;;;123.95;;
58196;SDS011;43999;51.660;5.616;2023-12-20T05:22:32;247.32;;;125.72;;
58196;SDS011;43999;51.660;5.616;2023-12-20T05:25:20;230.70;;;121.65;;
58196;SDS011;43999;51.660;5.616;2023-12-20T05:28:08;250.00;;;125.40;;
58196;SDS011;43999;51.660;5.616;2023-12-20T05:30:59;252.48;;;124.70;;
58196;SDS011;43999;51.660;5.616;2023-12-20T05:33:47;244.43;;;125.60;;
58196;SDS011;43999;51.660;5.616;2023-12-20T05:36:35;239.75;;;123.45;;
58196;SDS011;43999;51.660;5.616;2023-12-20T05:39:23;235.52;;;122.22;;
58196;SDS011;43999;51.660;5.616;2023-12-20T05:42:14;257.40;;;126.78;;
58196;SDS011;43999;51.660;5.616;2023-12-20T05:45:02;247.18;;;125.85;;
58196;SDS011;43999;51.660;5.616;2023-12-20T05:47:55;251.05;;;125.55;;
58196;SDS011;43999;51.660;5.616;2023-12-20T05:50:44;254.73;;;126.97;;
58196;SDS011;43999;51.660;5.616;2023-12-20T05:53:32;248.25;;;125.30;;
58196;SDS011;43999;51.660;5.616;2023-12-20T05:56:29;242.07;;;122.10;;
58196;SDS011;43999;51.660;5.616;2023-12-20T05:59:17;250.68;;;126.57;;
58196;SDS011;43999;51.660;5.616;2023-12-20T06:02:05;257.02;;;127.68;;
58196;SDS011;43999;51.660;5.616;2023-12-20T06:04:53;257.98;;;130.05;;
58196;SDS011;43999;51.660;5.616;2023-12-20T06:07:41;259.58;;;127.07;;
58196;SDS011;43999;51.660;5.616;2023-12-20T06:10:31;262.05;;;127.93;;
58196;SDS011;43999;51.660;5.616;2023-12-20T06:13:19;223.00;;;118.97;;
58196;SDS011;43999;51.660;5.616;2023-12-20T06:16:13;228.35;;;120.35;;
58196;SDS011;43999;51.660;5.616;2023-12-20T06:19:02;211.60;;;114.95;;
58196;SDS011;43999;51.660;5.616;2023-12-20T06:21:51;231.70;;;117.03;;
58196;SDS011;43999;51.660;5.616;2023-12-20T06:24:39;239.05;;;120.95;;
58196;SDS011;43999;51.660;5.616;2023-12-20T06:27:30;226.77;;;118.82;;
58196;SDS011;43999;51.660;5.616;2023-12-20T06:30:19;219.77;;;116.18;;
58196;SDS011;43999;51.660;5.616;2023-12-20T06:33:10;227.48;;;120.60;;
58196;SDS011;43999;51.660;5.616;2023-12-20T06:35:59;240.15;;;123.22;;
58196;SDS011;43999;51.660;5.616;2023-12-20T06:38:48;239.85;;;122.60;;
58196;SDS011;43999;51.660;5.616;2023-12-20T06:41:38;215.27;;;119.53;;
58196;SDS011;43999;51.660;5.616;2023-12-20T06:44:27;226.32;;;120.90;;
58196;SDS011;43999;51.660;5.616;2023-12-20T06:47:15;240.85;;;122.93;;
58196;SDS011;43999;51.660;5.616;2023-12-20T06:50:04;213.20;;;118.05;;
58196;SDS011;43999;51.660;5.616;2023-12-20T06:52:56;232.68;;;120.85;;
58196;SDS011;43999;51.660;5.616;2023-12-20T06:55:45;237.63;;;124.05;;
58196;SDS011;43999;51.660;5.616;2023-12-20T06:58:33;235.35;;;122.35;;
58196;SDS011;43999;51.660;5.616;2023-12-20T07:01:22;252.27;;;123.80;;
58196;SDS011;43999;51.660;5.616;2023-12-20T07:04:28;254.40;;;126.78;;
58196;SDS011;43999;51.660;5.616;2023-12-20T07:07:18;234.60;;;121.10;;
58196;SDS011;43999;51.660;5.616;2023-12-20T07:10:10;227.18;;;117.78;;
58196;SDS011;43999;51.660;5.616;2023-12-20T07:12:58;229.70;;;120.20;;
58196;SDS011;43999;51.660;5.616;2023-12-20T07:15:48;211.35;;;115.40;;
58196;SDS011;43999;51.660;5.616;2023-12-20T07:18:37;215.20;;;116.00;;
58196;SDS011;43999;51.660;5.616;2023-12-20T07:21:25;220.20;;;117.38;;
58196;SDS011;43999;51.660;5.616;2023-12-20T07:24:20;225.10;;;117.65;;
58196;SDS011;43999;51.660;5.616;2023-12-20T07:27:10;210.63;;;114.50;;
58196;SDS011;43999;51.660;5.616;2023-12-20T07:29:58;222.95;;;119.38;;
58196;SDS011;43999;51.660;5.616;2023-12-20T07:32:56;226.05;;;118.45;;
58196;SDS011;43999;51.660;5.616;2023-12-20T07:35:46;231.98;;;119.82;;
58196;SDS011;43999;51.660;5.616;2023-12-20T07:38:43;228.63;;;119.20;;
58196;SDS011;43999;51.660;5.616;2023-12-20T07:41:34;226.40;;;119.20;;
58196;SDS011;43999;51.660;5.616;2023-12-20T07:44:23;224.45;;;119.55;;
58196;SDS011;43999;51.660;5.616;2023-12-20T07:47:12;241.73;;;122.78;;
58196;SDS011;43999;51.660;5.616;2023-12-20T07:50:04;239.50;;;121.32;;
58196;SDS011;43999;51.660;5.616;2023-12-20T07:52:52;230.10;;;121.53;;
58196;SDS011;43999;51.660;5.616;2023-12-20T07:55:48;232.10;;;121.35;;
58196;SDS011;43999;51.660;5.616;2023-12-20T07:58:40;227.68;;;119.18;;
58196;SDS011;43999;51.660;5.616;2023-12-20T08:01:41;225.77;;;118.93;;
58196;SDS011;43999;51.660;5.616;2023-12-20T08:04:29;219.82;;;117.72;;
58196;SDS011;43999;51.660;5.616;2023-12-20T08:07:20;221.48;;;120.93;;
58196;SDS011;43999;51.660;5.616;2023-12-20T08:10:11;212.77;;;116.95;;
58196;SDS011;43999;51.660;5.616;2023-12-20T08:13:01;223.80;;;119.00;;
58196;SDS011;43999;51.660;5.616;2023-12-20T08:15:54;217.20;;;116.70;;
58196;SDS011;43999;51.660;5.616;2023-12-20T08:18:43;209.10;;;116.72;;
58196;SDS011;43999;51.660;5.616;2023-12-20T08:21:31;214.95;;;116.90;;
58196;SDS011;43999;51.660;5.616;2023-12-20T08:24:24;226.57;;;119.68;;
58196;SDS011;43999;51.660;5.616;2023-12-20T08:27:13;235.05;;;122.35;;
58196;SDS011;43999;51.660;5.616;2023-12-20T08:30:02;225.52;;;121.15;;
58196;SDS011;43999;51.660;5.616;2023-12-20T08:32:50;229.32;;;119.35;;
58196;SDS011;43999;51.660;5.616;2023-12-20T08:35:42;223.10;;;118.30;;
58196;SDS011;43999;51.660;5.616;2023-12-20T08:38:31;223.38;;;119.20;;
58196;SDS011;43999;51.660;5.616;2023-12-20T08:41:21;237.95;;;121.97;;
58196;SDS011;43999;51.660;5.616;2023-12-20T08:44:10;226.02;;;120.95;;
58196;SDS011;43999;51.660;5.616;2023-12-20T08:46:58;225.77;;;119.03;;
58196;SDS011;43999;51.660;5.616;2023-12-20T08:49:46;227.18;;;119.78;;
58196;SDS011;43999;51.660;5.616;2023-12-20T08:52:35;228.38;;;122.35;;
58196;SDS011;43999;51.660;5.616;2023-12-20T08:55:23;239.35;;;122.03;;
58196;SDS011;43999;51.660;5.616;2023-12-20T08:58:14;238.68;;;121.43;;
58196;SDS011;43999;51.660;5.616;2023-12-20T09:01:05;221.70;;;117.78;;
58196;SDS011;43999;51.660;5.616;2023-12-20T09:03:57;230.77;;;120.78;;
58196;SDS011;43999;51.660;5.616;2023-12-20T09:06:46;235.10;;;120.03;;
58196;SDS011;43999;51.660;5.616;2023-12-20T09:09:35;230.43;;;121.57;;
58196;SDS011;43999;51.660;5.616;2023-12-20T09:12:28;228.63;;;120.53;;
58196;SDS011;43999;51.660;5.616;2023-12-20T09:15:19;243.68;;;121.80;;
58196;SDS011;43999;51.660;5.616;2023-12-20T09:18:08;244.35;;;122.60;;
58196;SDS011;43999;51.660;5.616;2023-12-20T09:20:57;232.15;;;119.68;;
58196;SDS011;43999;51.660;5.616;2023-12-20T09:23:47;235.38;;;120.72;;
58196;SDS011;43999;51.660;5.616;2023-12-20T09:26:41;236.07;;;121.47;;
58196;SDS011;43999;51.660;5.616;2023-12-20T09:29:31;241.68;;;122.97;;
58196;SDS011;43999;51.660;5.616;2023-12-20T09:32:27;242.65;;;123.65;;
58196;SDS011;43999;51.660;5.616;2023-12-20T09:35:18;240.20;;;123.03;;
58196;SDS011;43999;51.660;5.616;2023-12-20T09:38:17;236.63;;;119.97;;
58196;SDS011;43999;51.660;5.616;2023-12-20T09:41:05;236.40;;;122.28;;
58196;SDS011;43999;51.660;5.616;2023-12-20T09:43:55;237.60;;;123.18;;
58196;SDS011;43999;51.660;5.616;2023-12-20T09:46:51;240.93;;;122.63;;
58196;SDS011;43999;51.660;5.616;2023-12-20T09:49:41;247.20;;;125.40;;
58196;SDS011;43999;51.660;5.616;2023-12-20T09:52:35;237.05;;;121.55;;
58196;SDS011;43999;51.660;5.616;2023-12-20T09:56:01;249.77;;;125.75;;
58196;SDS011;43999;51.660;5.616;2023-12-20T09:59:02;254.95;;;126.22;;
58196;SDS011;43999;51.660;5.616;2023-12-20T10:02:01;236.73;;;122.82;;
58196;SDS011;43999;51.660;5.616;2023-12-20T10:05:29;244.95;;;124.35;;
58196;SDS011;43999;51.660;5.616;2023-12-20T10:08:36;254.52;;;125.95;;
58196;SDS011;43999;51.660;5.616;2023-12-20T10:11:31;245.35;;;124.13;;
58196;SDS011;43999;51.660;5.616;2023-12-20T10:14:43;244.75;;;123.97;;
58196;SDS011;43999;51.660;5.616;2023-12-20T10:17:48;241.02;;;120.97;;
58196;SDS011;43999;51.660;5.616;2023-12-20T10:20:44;258.45;;;123.72;;
58196;SDS011;43999;51.660;5.616;2023-12-20T10:24:03;250.85;;;125.13;;
58196;SDS011;43999;51.660;5.616;2023-12-20T10:27:08;248.75;;;124.75;;
58196;SDS011;43999;51.660;5.616;2023-12-20T10:30:28;255.52;;;126.95;;
58196;SDS011;43999;51.660;5.616;2023-12-20T10:33:57;263.23;;;127.43;;
58196;SDS011;43999;51.660;5.616;2023-12-20T10:37:21;252.35;;;125.55;;
58196;SDS011;43999;51.660;5.616;2023-12-20T10:40:27;251.63;;;125.45;;
58196;SDS011;43999;51.660;5.616;2023-12-20T10:43:49;258.00;;;126.63;;
58196;SDS011;43999;51.660;5.616;2023-12-20T10:47:03;212.82;;;116.88;;
58196;SDS011;43999;51.660;5.616;2023-12-20T10:50:22;211.85;;;115.53;;
58196;SDS011;43999;51.660;5.616;2023-12-20T10:53:49;214.57;;;116.05;;
58196;SDS011;43999;51.660;5.616;2023-12-20T10:56:44;211.23;;;119.40;;
58196;SDS011;43999;51.660;5.616;2023-12-20T10:59:41;219.30;;;116.53;;
58196;SDS011;43999;51.660;5.616;2023-12-20T11:03:16;226.63;;;117.00;;
58196;SDS011;43999;51.660;5.616;2023-12-20T11:06:47;208.88;;;113.60;;
58196;SDS011;43999;51.660;5.616;2023-12-20T11:10:03;221.25;;;119.10;;
58196;SDS011;43999;51.660;5.616;2023-12-20T11:13:43;215.75;;;115.05;;
58196;SDS011;43999;51.660;5.616;2023-12-20T11:17:14;210.50;;;114.75;;
58196;SDS011;43999;51.660;5.616;2023-12-20T11:20:37;200.38;;;111.78;;
58196;SDS011;43999;51.660;5.616;2023-12-20T11:23:33;190.10;;;108.85;;
58196;SDS011;43999;51.660;5.616;2023-12-20T11:26:56;181.45;;;108.07;;
58196;SDS011;43999;51.660;5.616;2023-12-20T11:29:54;176.75;;;103.88;;
58196;SDS011;43999;51.660;5.616;2023-12-20T11:33:36;190.13;;;111.20;;
58196;SDS011;43999;51.660;5.616;2023-12-20T11:37:02;176.25;;;105.63;;
58196;SDS011;43999;51.660;5.616;2023-12-20T11:40:20;173.18;;;104.32;;
58196;SDS011;43999;51.660;5.616;2023-12-20T11:44:06;170.15;;;104.03;;
58196;SDS011;43999;51.660;5.616;2023-12-20T11:47:36;173.43;;;101.57;;
58196;SDS011;43999;51.660;5.616;2023-12-20T11:51:12;162.77;;;100.00;;
58196;SDS011;43999;51.660;5.616;2023-12-20T11:54:43;171.95;;;102.13;;
58196;SDS011;43999;51.660;5.616;2023-12-20T11:57:47;162.30;;;100.30;;
58196;SDS011;43999;51.660;5.616;2023-12-20T12:01:11;152.82;;;96.60;;
58196;SDS011;43999;51.660;5.616;2023-12-20T12:04:34;151.45;;;99.22;;
58196;SDS011;43999;51.660;5.616;2023-12-20T12:07:53;171.82;;;100.25;;
58196;SDS011;43999;51.660;5.616;2023-12-20T12:11:31;151.90;;;99.53;;
58196;SDS011;43999;51.660;5.616;2023-12-20T12:14:28;176.07;;;103.35;;
58196;SDS011;43999;51.660;5.616;2023-12-20T12:18:40;167.15;;;102.63;;
58196;SDS011;43999;51.660;5.616;2023-12-20T12:22:06;151.13;;;98.28;;
58196;SDS011;43999;51.660;5.616;2023-12-20T12:25:19;157.60;;;100.22;;
58196;SDS011;43999;51.660;5.616;2023-12-20T12:28:58;162.00;;;100.40;;
58196;SDS011;43999;51.660;5.616;2023-12-20T12:31:53;159.05;;;98.47;;
58196;SDS011;43999;51.660;5.616;2023-12-20T12:35:07;158.48;;;99.25;;
58196;SDS011;43999;51.660;5.616;2023-12-20T12:38:20;160.48;;;99.90;;
58196;SDS011;43999;51.660;5.616;2023-12-20T12:41:56;170.35;;;103.70;;
58196;SDS011;43999;51.660;5.616;2023-12-20T12:45:02;154.25;;;96.22;;
58196;SDS011;43999;51.660;5.616;2023-12-20T12:48:54;140.55;;;92.88;;
58196;SDS011;43999;51.660;5.616;2023-12-20T12:52:04;135.93;;;92.03;;
58196;SDS011;43999;51.660;5.616;2023-12-20T12:55:00;132.15;;;89.78;;
58196;SDS011;43999;51.660;5.616;2023-12-20T12:58:08;144.20;;;94.85;;
58196;SDS011;43999;51.660;5.616;2023-12-20T13:01:04;128.38;;;90.93;;
58196;SDS011;43999;51.660;5.616;2023-12-20T13:04:10;130.57;;;88.57;;
58196;SDS011;43999;51.660;5.616;2023-12-20T13:07:30;137.20;;;91.72;;
58196;SDS011;43999;51.660;5.616;2023-12-20T13:11:18;139.48;;;92.93;;
58196;SDS011;43999;51.660;5.616;2023-12-20T13:14:27;138.90;;;90.30;;
58196;SDS011;43999;51.660;5.616;2023-12-20T13:22:08;124.05;;;87.00;;
58196;SDS011;43999;51.660;5.616;2023-12-20T13:29:10;131.70;;;90.07;;
58196;SDS011;43999;51.660;5.616;2023-12-20T13:32:17;127.82;;;87.90;;
58196;SDS011;43999;51.660;5.616;2023-12-20T13:35:09;126.32;;;88.25;;
58196;SDS011;43999;51.660;5.616;2023-12-20T13:42:36;142.77;;;93.32;;
58196;SDS011;43999;51.660;5.616;2023-12-20T13:46:40;144.25;;;94.53;;
58196;SDS011;43999;51.660;5.616;2023-12-20T13:53:24;126.93;;;87.97;;
58196;SDS011;43999;51.660;5.616;2023-12-20T13:56:31;136.95;;;90.28;;
58196;SDS011;43999;51.660;5.616;2023-12-20T14:00:04;127.82;;;88.95;;
58196;SDS011;43999;51.660;5.616;2023-12-20T14:03:24;130.32;;;88.90;;
58196;SDS011;43999;51.660;5.616;2023-12-20T14:06:44;138.98;;;91.03;;
58196;SDS011;43999;51.660;5.616;2023-12-20T14:09:55;127.88;;;88.00;;
58196;SDS011;43999;51.660;5.616;2023-12-20T14:13:25;126.28;;;88.80;;
58196;SDS011;43999;51.660;5.616;2023-12-20T14:16:46;130.32;;;88.63;;
58196;SDS011;43999;51.660;5.616;2023-12-20T14:19:56;119.68;;;85.30;;
58196;SDS011;43999;51.660;5.616;2023-12-20T14:23:17;122.63;;;85.70;;
58196;SDS011;43999;51.660;5.616;2023-12-20T14:26:11;122.90;;;83.38;;
58196;SDS011;43999;51.660;5.616;2023-12-20T14:29:08;129.55;;;84.93;;
58196;SDS011;43999;51.660;5.616;2023-12-20T14:32:14;123.40;;;86.75;;
58196;SDS011;43999;51.660;5.616;2023-12-20T14:35:24;117.72;;;86.50;;
58196;SDS011;43999;51.660;5.616;2023-12-20T14:38:40;126.40;;;86.78;;
58196;SDS011;43999;51.660;5.616;2023-12-20T14:41:32;121.95;;;84.78;;
58196;SDS011;43999;51.660;5.616;2023-12-20T14:44:55;127.18;;;87.70;;
58196;SDS011;43999;51.660;5.616;2023-12-20T14:48:14;130.32;;;87.10;;
58196;SDS011;43999;51.660;5.616;2023-12-20T14:51:11;116.03;;;84.10;;
58196;SDS011;43999;51.660;5.616;2023-12-20T14:54:27;128.45;;;86.55;;
58196;SDS011;43999;51.660;5.616;2023-12-20T14:58:14;129.48;;;88.35;;
58196;SDS011;43999;51.660;5.616;2023-12-20T15:01:31;124.72;;;85.30;;
58196;SDS011;43999;51.660;5.616;2023-12-20T15:04:41;120.65;;;86.47;;
58196;SDS011;43999;51.660;5.616;2023-12-20T15:08:06;132.68;;;89.60;;
58196;SDS011;43999;51.660;5.616;2023-12-20T15:11:23;124.85;;;86.93;;
58196;SDS011;43999;51.660;5.616;2023-12-20T15:14:28;126.50;;;87.65;;
58196;SDS011;43999;51.660;5.616;2023-12-20T15:17:25;117.57;;;81.57;;
58196;SDS011;43999;51.660;5.616;2023-12-20T15:20:25;121.03;;;86.80;;
58196;SDS011;43999;51.660;5.616;2023-12-20T15:23:37;130.30;;;87.68;;
58196;SDS011;43999;51.660;5.616;2023-12-20T15:26:40;99.53;;;76.63;;
58196;SDS011;43999;51.660;5.616;2023-12-20T15:29:35;108.57;;;80.68;;
58196;SDS011;43999;51.660;5.616;2023-12-20T15:32:39;110.13;;;80.47;;
58196;SDS011;43999;51.660;5.616;2023-12-20T15:35:51;110.53;;;80.78;;
58196;SDS011;43999;51.660;5.616;2023-12-20T15:39:11;105.55;;;78.88;;
58196;SDS011;43999;51.660;5.616;2023-12-20T15:42:26;107.05;;;79.65;;
58196;SDS011;43999;51.660;5.616;2023-12-20T15:45:43;107.22;;;80.78;;
58196;SDS011;43999;51.660;5.616;2023-12-20T15:49:12;107.50;;;79.55;;
58196;SDS011;43999;51.660;5.616;2023-12-20T15:52:13;118.60;;;82.85;;
58196;SDS011;43999;51.660;5.616;2023-12-20T15:55:34;125.00;;;86.90;;
58196;SDS011;43999;51.660;5.616;2023-12-20T15:58:25;123.93;;;86.35;;
58196;SDS011;43999;51.660;5.616;2023-12-20T16:01:20;114.65;;;83.72;;
58196;SDS011;43999;51.660;5.616;2023-12-20T16:04:34;116.07;;;85.47;;
58196;SDS011;43999;51.660;5.616;2023-12-20T16:07:48;119.20;;;85.45;;
58196;SDS011;43999;51.660;5.616;2023-12-20T16:10:37;117.78;;;85.15;;
58196;SDS011;43999;51.660;5.616;2023-12-20T16:13:29;120.68;;;85.53;;
58196;SDS011;43999;51.660;5.616;2023-12-20T16:16:30;126.13;;;87.90;;
58196;SDS011;43999;51.660;5.616;2023-12-20T16:19:28;121.15;;;86.25;;
58196;SDS011;43999;51.660;5.616;2023-12-20T16:22:22;125.05;;;89.85;;
58196;SDS011;43999;51.660;5.616;2023-12-20T16:25:11;131.32;;;88.78;;
58196;SDS011;43999;51.660;5.616;2023-12-20T16:28:15;138.10;;;93.60;;
58196;SDS011;43999;51.660;5.616;2023-12-20T16:31:24;145.75;;;93.45;;
58196;SDS011;43999;51.660;5.616;2023-12-20T16:34:22;132.88;;;91.80;;
58196;SDS011;43999;51.660;5.616;2023-12-20T16:37:14;136.18;;;91.35;;
58196;SDS011;43999;51.660;5.616;2023-12-20T16:40:10;131.10;;;90.03;;
58196;SDS011;43999;51.660;5.616;2023-12-20T16:43:05;139.98;;;93.10;;
58196;SDS011;43999;51.660;5.616;2023-12-20T16:45:56;139.00;;;93.25;;
58196;SDS011;43999;51.660;5.616;2023-12-20T16:48:52;127.18;;;86.53;;
58196;SDS011;43999;51.660;5.616;2023-12-20T16:51:44;131.88;;;90.03;;
58196;SDS011;43999;51.660;5.616;2023-12-20T16:54:40;131.15;;;89.55;;
58196;SDS011;43999;51.660;5.616;2023-12-20T16:57:43;133.02;;;92.47;;
58196;SDS011;43999;51.660;5.616;2023-12-20T17:01:08;134.50;;;93.13;;
58196;SDS011;43999;51.660;5.616;2023-12-20T17:04:06;138.50;;;92.28;;
58196;SDS011;43999;51.660;5.616;2023-12-20T17:06:57;138.93;;;92.63;;
58196;SDS011;43999;51.660;5.616;2023-12-20T17:10:24;145.82;;;94.95;;
58196;SDS011;43999;51.660;5.616;2023-12-20T17:13:18;140.65;;;95.15;;
58196;SDS011;43999;51.660;5.616;2023-12-20T17:16:48;137.15;;;93.30;;